Hauptseite
METAR-TAF:

METAR-TAF

Flughäfen :

Bologna, Italien

Flughafen Bologna

Breite: 44-32N, Länge: 011-18E, Höhe: 36 m

Beobachtung

Neuester Wetterbericht von vor 34 Minuten, um 21:20 UTC
Wind 11 kt aus Ost/Nordost
Temperatur -1°C
Luftfeuchtigkeit 59%
Luftdruck 1014 hPa
Sichtweite 10 km oder mehr
Durchbrochene Bewölkung in der Höhe von 4000 ft
Aufgelockert bewölkt in der Höhe von 8000 ft

METAR: LIPE 252120Z 06011KT 9999 BKN040 SCT080 M01/M08 Q1014

Zeit: 22:54 (21:54 UTC)

Prognose

Neuester Wetterbericht von vor 4 Stunden und 54 Minuten, um 17:00 UTC
Gültige Prognose vom 25 um 18 UTC bis 26 um 18 UTC
Wind 13 kt aus Ost/Nordost
Sichtweite: 7000 m
Durchbrochene Bewölkung in der Höhe von 2500 ft
Durchbrochene Bewölkung in der Höhe von 5000 ft

TAF: LIPE 251700Z 2518/2618 07013KT 7000 BKN025 BKN050

Wetterbeobachtungen und Prognosen von mehr als 4000 Flughäfen (METAR und TAF Bericht).

Die verfügbaren Stationen werden durch gelbe und rote Markierungen auf der Karte dargestellt.

Führen Sie die Maus auf sie, um den Namen der Station zu sehen.

Darauf klicken, um die Beobachtung von Wetterbeobachtungen und Prognosen zu sehen.

Um die Karte zu ändern : klicken Sie auf den grünen Tasten mit einem schwarzen Kreuz Zum Vergrößern, auf den grünen Button mit einem Gedankenstrich zu verkleinern, oder auf die grünen Pfeile für benachbarte Karten.


METAR-TAF: